Time;durP1;ratioP1;P1;durP2;ratioP2;P2;SDS_P1;SDS_P2;PMS_P1;PMS_P2;Temp;Humidity;BMP_temperature;BMP_pressure;BME280_temperature;BME280_humidity;BME280_pressure;Samples;Min_cycle;Max_cycle;Signal;HPM_P1;HPM_P2
2022/08/14 00:01:09;;;;;;;11.90;7.28;;;23.10;96.90;;;;;;5073263;28;20169;-93
2022/08/14 00:03:35;;;;;;;11.52;6.72;;;23.10;96.90;;;;;;5056831;28;20033;-93
2022/08/14 00:06:02;;;;;;;10.77;6.93;;;23.10;97.40;;;;;;5073080;28;20045;-93
2022/08/14 00:08:28;;;;;;;9.88;6.88;;;23.10;97.20;;;;;;5057024;28;20041;-93
2022/08/14 00:10:54;;;;;;;11.85;6.50;;;23.00;97.30;;;;;;5073078;28;20048;-93
2022/08/14 00:13:23;;;;;;;11.55;6.82;;;23.00;97.70;;;;;;5073704;28;20550;-93
2022/08/14 00:15:50;;;;;;;11.10;6.40;;;23.00;97.80;;;;;;5056667;28;20043;-93
2022/08/14 00:18:22;;;;;;;8.60;6.10;;;22.90;97.90;;;;;;5073143;28;20040;-93
2022/08/14 00:20:49;;;;;;;10.43;6.53;;;23.00;98.00;;;;;;5056827;28;20139;-93
2022/08/14 00:23:16;;;;;;;9.50;6.60;;;22.90;98.60;;;;;;5056095;28;20040;-93
2022/08/14 00:25:48;;;;;;;10.18;6.55;;;22.90;99.10;;;;;;5073456;28;20090;-93
2022/08/14 00:28:13;;;;;;;10.38;6.82;;;22.90;99.30;;;;;;5056402;28;20043;-93
2022/08/14 00:30:40;;;;;;;9.63;6.13;;;22.80;99.40;;;;;;5073117;28;20048;-93
2022/08/14 00:33:06;;;;;;;9.82;6.70;;;22.90;99.20;;;;;;5055882;28;20044;-93
2022/08/14 00:35:33;;;;;;;11.30;6.78;;;22.80;99.40;;;;;;5056294;28;20040;-94
2022/08/14 00:37:59;;;;;;;9.90;7.22;;;22.80;99.50;;;;;;5073126;28;20405;-93
2022/08/14 00:40:25;;;;;;;11.32;6.88;;;22.70;99.90;;;;;;5072604;28;20045;-93
2022/08/14 00:42:52;;;;;;;9.75;6.95;;;22.70;99.90;;;;;;5055950;28;20497;-93
2022/08/14 00:45:17;;;;;;;10.45;6.85;;;22.70;99.90;;;;;;5055808;28;20040;-92
2022/08/14 00:47:45;;;;;;;11.63;6.93;;;22.70;99.90;;;;;;5074003;28;20036;-93
2022/08/14 00:50:14;;;;;;;10.05;6.72;;;22.60;99.90;;;;;;5072786;28;20052;-92
2022/08/14 00:52:41;;;;;;;10.02;6.78;;;22.60;99.90;;;;;;5072178;28;20052;-93
2022/08/14 00:55:08;;;;;;;9.15;6.75;;;22.60;99.90;;;;;;5072799;28;20054;-93
2022/08/14 00:57:35;;;;;;;13.32;7.38;;;22.60;99.90;;;;;;5072427;28;20044;-93
2022/08/14 01:00:03;;;;;;;10.00;6.72;;;22.50;99.90;;;;;;5072244;28;20472;-93
2022/08/14 01:02:29;;;;;;;9.05;7.10;;;22.50;99.90;;;;;;5071704;28;20470;-92
2022/08/14 01:04:57;;;;;;;9.25;7.18;;;22.50;99.90;;;;;;5072588;28;20071;-93
2022/08/14 01:07:25;;;;;;;12.00;7.38;;;22.50;99.90;;;;;;5072609;28;20043;-92
2022/08/14 01:09:53;;;;;;;9.63;6.97;;;22.50;99.90;;;;;;5055524;28;20047;-93
2022/08/14 01:12:20;;;;;;;11.60;7.18;;;22.50;99.90;;;;;;5055680;28;20080;-93
2022/08/14 01:14:54;;;;;;;11.70;7.45;;;22.50;99.90;;;;;;5055193;28;20588;-93
2022/08/14 01:17:23;;;;;;;10.40;7.07;;;22.50;99.90;;;;;;5072634;28;20050;-93
2022/08/14 01:22:34;;;;;;;10.30;6.82;;;22.50;99.90;;;;;;5071553;28;20040;-93
2022/08/14 01:25:00;;;;;;;11.15;6.80;;;22.50;99.90;;;;;;5071830;28;20040;-93
2022/08/14 01:27:27;;;;;;;10.35;6.85;;;22.40;99.90;;;;;;5072102;28;20036;-92
2022/08/14 01:29:56;;;;;;;10.02;7.20;;;22.40;99.90;;;;;;5055163;28;20037;-93
2022/08/14 01:32:22;;;;;;;10.55;7.28;;;22.40;99.90;;;;;;5071856;28;20130;-93
2022/08/14 01:34:53;;;;;;;9.43;6.70;;;22.40;99.90;;;;;;5055461;28;20540;-93
2022/08/14 01:37:24;;;;;;;11.10;7.20;;;22.40;99.90;;;;;;5071653;28;20127;-93
2022/08/14 01:39:51;;;;;;;10.02;7.15;;;22.40;99.90;;;;;;5054693;28;20040;-93
2022/08/14 01:42:17;;;;;;;10.02;7.03;;;22.30;99.90;;;;;;5071361;28;20443;-94
2022/08/14 01:44:47;;;;;;;10.85;7.40;;;22.30;99.90;;;;;;5071666;28;20087;-93
2022/08/14 01:47:13;;;;;;;10.02;7.53;;;22.30;99.90;;;;;;5055097;28;20043;-93
2022/08/14 01:49:42;;;;;;;11.82;7.38;;;22.30;99.90;;;;;;5071430;28;20044;-93
2022/08/14 01:52:07;;;;;;;11.50;7.43;;;22.30;99.90;;;;;;5054294;28;20042;-93
2022/08/14 01:54:34;;;;;;;9.85;6.93;;;22.30;99.90;;;;;;5071471;28;20414;-93
2022/08/14 01:57:00;;;;;;;10.32;6.93;;;22.20;99.90;;;;;;5054354;28;20075;-93
2022/08/14 01:59:32;;;;;;;9.10;7.10;;;22.20;99.90;;;;;;5054496;28;20040;-93
2022/08/14 02:02:02;;;;;;;10.43;7.75;;;22.20;99.90;;;;;;5054336;28;20433;-93
2022/08/14 02:04:33;;;;;;;10.02;6.90;;;22.20;99.90;;;;;;5070630;28;20036;-93
2022/08/14 02:07:01;;;;;;;9.98;7.28;;;22.20;99.90;;;;;;5054291;28;20037;-93
2022/08/14 02:09:29;;;;;;;11.35;7.65;;;22.20;99.90;;;;;;5070975;28;20050;-93
2022/08/14 02:11:55;;;;;;;10.80;7.00;;;22.10;99.90;;;;;;5070715;28;20494;-93
2022/08/14 02:14:22;;;;;;;9.82;7.20;;;22.10;99.90;;;;;;5070266;28;20051;-93
2022/08/14 02:16:51;;;;;;;10.73;7.22;;;22.20;99.90;;;;;;5071334;28;20130;-93
2022/08/14 02:19:20;;;;;;;9.75;7.10;;;22.10;99.90;;;;;;5070694;28;20055;-93
2022/08/14 02:21:49;;;;;;;9.73;7.22;;;22.10;99.90;;;;;;5070527;28;20036;-93
2022/08/14 02:24:17;;;;;;;10.50;7.18;;;22.10;99.90;;;;;;5054338;28;20033;-93
2022/08/14 02:26:48;;;;;;;10.05;6.68;;;22.10;99.90;;;;;;5070765;28;20036;-93
2022/08/14 02:29:16;;;;;;;10.25;7.30;;;22.10;99.90;;;;;;5054351;28;20036;-93
2022/08/14 02:31:45;;;;;;;9.90;7.20;;;22.00;99.90;;;;;;5069915;28;20085;-93
2022/08/14 02:34:14;;;;;;;10.25;7.72;;;22.10;99.90;;;;;;5070826;28;20032;-92
2022/08/14 02:36:41;;;;;;;10.52;7.53;;;22.10;99.90;;;;;;5070901;28;20130;-92
2022/08/14 02:39:09;;;;;;;9.68;7.75;;;22.10;99.90;;;;;;5070748;28;20064;-93
2022/08/14 02:41:35;;;;;;;11.70;7.63;;;22.00;99.90;;;;;;5070713;28;20067;-93
2022/08/14 02:44:03;;;;;;;9.90;7.35;;;22.00;99.90;;;;;;5070467;28;20029;-93
2022/08/14 02:46:29;;;;;;;11.23;7.32;;;22.00;99.90;;;;;;5070752;28;20036;-93
2022/08/14 02:48:55;;;;;;;10.18;7.53;;;21.90;99.90;;;;;;5070372;28;20378;-92
2022/08/14 02:51:21;;;;;;;10.57;7.47;;;22.00;99.90;;;;;;5070264;28;20041;-92
2022/08/14 02:53:47;;;;;;;9.70;7.20;;;21.90;99.90;;;;;;5070665;28;20033;-93
2022/08/14 02:56:15;;;;;;;10.40;7.78;;;21.90;99.90;;;;;;5053574;28;20501;-94
2022/08/14 02:58:47;;;;;;;10.15;8.35;;;21.90;99.90;;;;;;5070355;28;20047;-93
2022/08/14 03:01:18;;;;;;;11.40;7.60;;;21.90;99.90;;;;;;5069925;28;20379;-93
2022/08/14 03:03:47;;;;;;;11.90;7.73;;;21.90;99.90;;;;;;5071879;28;20047;-93
2022/08/14 03:06:14;;;;;;;11.75;8.52;;;21.80;99.90;;;;;;5070643;28;20047;-93
2022/08/14 03:08:41;;;;;;;10.27;7.68;;;21.80;99.90;;;;;;5053902;28;20123;-93
2022/08/14 03:11:10;;;;;;;9.45;7.70;;;21.80;99.90;;;;;;5070152;28;20050;-93
2022/08/14 03:13:39;;;;;;;11.63;7.80;;;21.80;99.90;;;;;;5069989;28;20041;-93
2022/08/14 03:16:06;;;;;;;9.98;8.07;;;21.70;99.90;;;;;;5070590;28;20131;-93
2022/08/14 03:18:32;;;;;;;10.98;8.20;;;21.70;99.90;;;;;;5053423;28;20669;-93
2022/08/14 03:21:04;;;;;;;12.52;8.00;;;21.70;99.90;;;;;;5053353;28;20051;-93
2022/08/14 03:23:34;;;;;;;10.80;7.63;;;21.70;99.90;;;;;;5070307;28;20090;-93
2022/08/14 03:26:02;;;;;;;11.05;8.50;;;21.60;99.90;;;;;;5073802;28;20121;-93
2022/08/14 03:28:29;;;;;;;10.85;8.27;;;21.60;99.90;;;;;;5057526;28;20037;-93
2022/08/14 03:30:56;;;;;;;12.20;8.18;;;21.60;99.90;;;;;;5073627;28;20040;-92
2022/08/14 03:33:22;;;;;;;10.75;8.15;;;21.60;99.90;;;;;;5074159;28;20565;-93
2022/08/14 03:35:50;;;;;;;14.25;8.45;;;21.60;99.90;;;;;;5075575;28;20539;-93
2022/08/14 03:38:17;;;;;;;10.32;7.93;;;21.60;99.90;;;;;;5073953;28;20051;-93
2022/08/14 03:40:45;;;;;;;11.05;8.60;;;21.50;99.90;;;;;;5074028;28;20094;-93
2022/08/14 03:43:12;;;;;;;12.43;8.32;;;21.50;99.90;;;;;;5073803;28;20106;-93
2022/08/14 03:45:39;;;;;;;11.23;8.68;;;21.50;99.90;;;;;;5074103;28;20048;-92
2022/08/14 03:48:19;;;;;;;11.52;8.32;;;21.50;99.90;;;;;;5057129;28;20040;-93
2022/08/14 03:50:46;;;;;;;9.77;8.25;;;21.50;99.90;;;;;;5073798;28;20131;-93
2022/08/14 03:53:13;;;;;;;11.23;8.45;;;21.50;99.90;;;;;;5073731;28;20045;-93
2022/08/14 03:55:40;;;;;;;11.20;8.55;;;21.40;99.90;;;;;;5073851;28;20401;-93
2022/08/14 03:58:07;;;;;;;11.98;8.52;;;21.40;99.90;;;;;;5074096;28;20044;-93
2022/08/14 04:00:33;;;;;;;12.25;8.50;;;21.30;99.90;;;;;;5056556;28;20040;-93
2022/08/14 04:02:59;;;;;;;11.95;8.50;;;21.30;99.90;;;;;;5074376;28;20064;-92
2022/08/14 04:05:25;;;;;;;12.93;8.63;;;21.30;99.90;;;;;;5073223;28;20067;-92
2022/08/14 04:07:51;;;;;;;11.20;8.45;;;21.30;99.90;;;;;;5073407;28;20028;-93
2022/08/14 04:10:17;;;;;;;12.68;8.25;;;21.30;99.90;;;;;;5073104;28;20044;-93
2022/08/14 04:12:42;;;;;;;10.93;8.93;;;21.20;99.90;;;;;;5056260;28;20131;-93
2022/08/14 04:15:09;;;;;;;11.15;8.52;;;21.20;99.90;;;;;;5056703;28;20040;-93
2022/08/14 04:17:35;;;;;;;10.38;8.38;;;21.20;99.90;;;;;;5072941;28;20048;-93
2022/08/14 04:20:03;;;;;;;11.25;8.65;;;21.20;99.90;;;;;;5073118;28;20055;-92
2022/08/14 04:22:30;;;;;;;12.23;8.57;;;21.20;99.90;;;;;;5072978;28;20093;-92
2022/08/14 04:24:57;;;;;;;10.82;9.32;;;21.20;99.90;;;;;;5072926;28;20044;-92
2022/08/14 04:27:24;;;;;;;11.32;8.70;;;21.20;99.90;;;;;;5073201;28;20033;-93
2022/08/14 04:29:49;;;;;;;12.05;9.63;;;21.10;99.90;;;;;;5072701;28;20387;-93
2022/08/14 04:32:15;;;;;;;11.35;8.82;;;21.10;99.90;;;;;;5056080;28;20090;-93
2022/08/14 04:34:41;;;;;;;13.43;9.60;;;21.10;99.90;;;;;;5074033;28;20113;-92
2022/08/14 04:45:22;;;;;;;12.48;9.80;;;21.10;99.90;;;;;;5073075;28;20044;-93
2022/08/14 04:50:34;;;;;;;11.57;9.93;;;21.10;99.90;;;;;;5072882;28;20080;-93
2022/08/14 04:53:02;;;;;;;12.20;9.40;;;21.00;99.90;;;;;;5055575;28;20052;-93
2022/08/14 04:55:30;;;;;;;12.45;9.45;;;21.10;99.90;;;;;;5072613;28;20051;-93
2022/08/14 04:57:56;;;;;;;12.57;9.68;;;21.10;99.90;;;;;;5056037;28;20094;-93
2022/08/14 05:00:22;;;;;;;11.57;9.73;;;21.10;99.90;;;;;;5055509;28;20452;-93
2022/08/14 05:02:48;;;;;;;11.65;9.20;;;21.10;99.90;;;;;;5055637;28;20041;-93
2022/08/14 05:05:14;;;;;;;11.95;9.68;;;21.10;99.90;;;;;;5055698;28;20037;-93
2022/08/14 05:07:41;;;;;;;12.52;10.27;;;21.10;99.90;;;;;;5072920;28;20047;-93
2022/08/14 05:10:07;;;;;;;11.07;9.07;;;21.10;99.90;;;;;;5055746;28;20037;-93
2022/08/14 05:12:33;;;;;;;12.90;10.50;;;21.10;99.90;;;;;;5071883;28;20036;-93
2022/08/14 05:14:59;;;;;;;12.57;10.70;;;21.10;99.90;;;;;;5072573;28;20133;-94
2022/08/14 05:17:25;;;;;;;14.25;10.35;;;21.10;99.90;;;;;;5055929;28;20086;-94
2022/08/14 05:19:51;;;;;;;13.43;10.27;;;21.20;99.90;;;;;;5072357;28;20044;-94
2022/08/14 05:22:18;;;;;;;11.93;9.68;;;21.20;99.90;;;;;;5071951;28;20044;-94
2022/08/14 05:24:48;;;;;;;12.30;9.75;;;21.20;99.90;;;;;;5055237;28;20040;-92
2022/08/14 05:27:14;;;;;;;13.57;10.57;;;21.20;99.90;;;;;;5072317;28;20516;-93
2022/08/14 05:29:43;;;;;;;15.35;10.43;;;21.20;99.90;;;;;;5055405;28;20043;-94
2022/08/14 05:32:09;;;;;;;12.07;9.52;;;21.20;99.90;;;;;;5071631;28;20041;-93
2022/08/14 05:34:35;;;;;;;13.13;10.35;;;21.20;99.90;;;;;;5071663;28;20098;-92
2022/08/14 05:37:01;;;;;;;12.75;10.43;;;21.20;99.90;;;;;;5071903;28;20033;-94
2022/08/14 05:39:28;;;;;;;11.82;9.98;;;21.20;99.90;;;;;;5068329;28;20123;-94
2022/08/14 05:41:53;;;;;;;11.43;9.93;;;21.20;99.90;;;;;;5063765;28;20086;-93
2022/08/14 05:44:19;;;;;;;11.85;9.50;;;21.30;99.90;;;;;;5054420;28;20061;-92
2022/08/14 05:46:45;;;;;;;12.20;10.40;;;21.30;99.90;;;;;;5078700;28;20044;-92
2022/08/14 05:49:10;;;;;;;12.18;10.10;;;21.30;99.90;;;;;;5071313;28;20044;-92
2022/08/14 05:51:37;;;;;;;13.45;9.77;;;21.40;99.90;;;;;;5070599;28;20036;-92
2022/08/14 05:54:03;;;;;;;12.20;10.80;;;21.40;99.90;;;;;;5072296;28;20490;-92
2022/08/14 05:56:28;;;;;;;12.75;10.10;;;21.50;99.90;;;;;;5071735;28;20047;-94
2022/08/14 05:58:54;;;;;;;13.48;9.77;;;21.50;99.90;;;;;;5072173;28;20520;-93
2022/08/14 06:01:20;;;;;;;14.80;10.73;;;21.50;99.90;;;;;;5068721;28;20043;-92
2022/08/14 06:03:45;;;;;;;11.95;10.23;;;21.60;99.90;;;;;;5050063;28;20119;-93
2022/08/14 06:06:11;;;;;;;12.32;10.13;;;21.60;99.90;;;;;;5071037;28;20040;-91
2022/08/14 06:08:37;;;;;;;12.50;9.77;;;21.70;99.90;;;;;;5070843;28;20445;-92
2022/08/14 06:11:05;;;;;;;12.85;9.88;;;21.70;99.90;;;;;;5070596;28;20383;-91
2022/08/14 06:13:37;;;;;;;14.38;9.80;;;21.80;99.90;;;;;;5070672;28;20382;-93
2022/08/14 06:16:03;;;;;;;11.50;9.93;;;21.80;99.90;;;;;;5070924;28;20534;-92
2022/08/14 06:18:29;;;;;;;20.33;12.75;;;21.90;99.90;;;;;;5072029;28;20040;-91
2022/08/14 06:20:55;;;;;;;12.77;9.75;;;21.90;99.90;;;;;;5050288;28;20047;-91
2022/08/14 06:23:20;;;;;;;11.25;10.07;;;22.00;99.90;;;;;;5068800;28;20041;-93
2022/08/14 06:25:46;;;;;;;11.85;9.25;;;22.10;99.90;;;;;;5054025;28;20043;-93
2022/08/14 06:28:20;;;;;;;13.40;9.40;;;22.10;99.90;;;;;;5045952;28;20661;-92
2022/08/14 06:30:46;;;;;;;11.10;9.38;;;22.20;99.90;;;;;;5049503;28;20051;-92
2022/08/14 06:33:12;;;;;;;14.02;10.05;;;22.20;99.90;;;;;;5046133;28;20044;-92
2022/08/14 06:35:39;;;;;;;13.30;9.80;;;22.30;99.90;;;;;;5067941;28;20058;-92
2022/08/14 06:38:04;;;;;;;11.18;9.00;;;22.30;99.90;;;;;;5053562;28;20085;-92
2022/08/14 06:40:32;;;;;;;11.15;9.43;;;22.40;99.90;;;;;;5065728;28;21540;-92
2022/08/14 06:43:07;;;;;;;11.68;9.32;;;22.50;99.90;;;;;;5066784;28;20044;-93
2022/08/14 06:45:34;;;;;;;11.25;9.40;;;22.50;99.90;;;;;;5070175;28;20508;-92
2022/08/14 06:48:00;;;;;;;10.80;8.27;;;22.60;99.90;;;;;;5053471;28;20616;-93
2022/08/14 06:50:27;;;;;;;11.95;8.73;;;22.70;99.90;;;;;;5069864;28;20096;-92
2022/08/14 06:52:54;;;;;;;12.40;8.85;;;22.80;99.90;;;;;;5069772;28;20037;-93
2022/08/14 06:55:19;;;;;;;11.13;8.43;;;22.80;99.90;;;;;;5062259;28;20119;-92
2022/08/14 06:57:47;;;;;;;9.98;8.45;;;22.90;99.90;;;;;;5050681;28;20170;-93
2022/08/14 07:00:19;;;;;;;11.32;7.70;;;23.00;99.90;;;;;;5046351;28;20037;-92
2022/08/14 07:05:49;;;;;;;10.98;8.43;;;23.10;99.90;;;;;;5070214;28;20414;-93
2022/08/14 07:08:27;;;;;;;11.07;7.90;;;23.20;99.90;;;;;;5053099;28;20087;-93
2022/08/14 07:10:57;;;;;;;10.20;8.20;;;23.30;99.90;;;;;;5069966;28;20045;-93
2022/08/14 07:13:24;;;;;;;11.55;8.15;;;23.40;99.90;;;;;;5068862;28;20036;-94
2022/08/14 07:15:51;;;;;;;10.95;8.13;;;23.40;99.90;;;;;;5053370;28;20112;-93
2022/08/14 07:18:28;;;;;;;10.50;8.15;;;23.50;99.90;;;;;;5053356;28;20080;-93
2022/08/14 07:20:56;;;;;;;9.65;7.53;;;23.60;99.90;;;;;;5052844;28;20076;-94
2022/08/14 07:23:25;;;;;;;9.65;7.70;;;23.60;99.90;;;;;;5068866;28;20090;-93
2022/08/14 07:25:55;;;;;;;10.13;7.45;;;23.70;99.90;;;;;;5058022;28;20036;-94
2022/08/14 07:28:25;;;;;;;9.70;7.65;;;23.80;99.90;;;;;;5062154;28;20041;-94
2022/08/14 07:30:56;;;;;;;10.13;7.45;;;23.90;99.90;;;;;;5068778;28;20089;-93
2022/08/14 07:33:23;;;;;;;12.25;7.85;;;24.00;99.90;;;;;;5069451;28;20122;-93
2022/08/14 07:35:49;;;;;;;13.57;8.10;;;24.10;99.90;;;;;;5069594;28;20506;-94
2022/08/14 07:38:20;;;;;;;12.20;7.18;;;24.10;99.90;;;;;;5057419;28;20056;-93
2022/08/14 07:40:47;;;;;;;10.85;7.18;;;24.20;99.90;;;;;;5067021;28;20514;-93
2022/08/14 07:43:13;;;;;;;10.07;6.90;;;24.30;99.90;;;;;;5041503;28;20120;-93
2022/08/14 07:45:40;;;;;;;8.95;6.45;;;24.40;99.90;;;;;;5053286;28;20120;-93
2022/08/14 07:48:05;;;;;;;10.55;7.30;;;24.40;99.90;;;;;;5050209;28;20080;-92
2022/08/14 07:50:33;;;;;;;9.27;6.78;;;24.50;99.90;;;;;;5069327;28;20489;-93
2022/08/14 07:52:59;;;;;;;9.18;7.03;;;24.60;99.90;;;;;;5069525;28;20052;-94
2022/08/14 07:55:25;;;;;;;11.30;7.10;;;24.70;99.90;;;;;;5052279;28;20045;-93
2022/08/14 07:57:51;;;;;;;11.05;6.57;;;24.70;99.90;;;;;;5052366;28;20564;-93
2022/08/14 08:00:19;;;;;;;9.88;6.68;;;24.80;99.90;;;;;;5068562;28;20127;-93
2022/08/14 08:02:47;;;;;;;10.73;6.80;;;24.90;99.90;;;;;;5068886;28;20095;-93
2022/08/14 08:05:15;;;;;;;9.75;7.28;;;25.00;99.90;;;;;;5068974;28;20068;-93
2022/08/14 08:07:43;;;;;;;10.93;6.78;;;25.10;99.90;;;;;;5069560;28;20032;-93
2022/08/14 08:10:30;;;;;;;9.68;6.57;;;25.10;99.90;;;;;;5069462;28;20180;-93
2022/08/14 08:12:57;;;;;;;10.25;7.57;;;25.20;99.90;;;;;;5055282;28;20045;-93
2022/08/14 08:15:25;;;;;;;10.00;6.97;;;25.30;99.90;;;;;;5048010;28;20166;-93
2022/08/14 08:17:52;;;;;;;8.55;6.38;;;25.40;99.90;;;;;;5055752;28;20048;-92
2022/08/14 08:20:20;;;;;;;9.18;6.22;;;25.50;99.90;;;;;;5056063;28;20429;-92
2022/08/14 08:22:49;;;;;;;11.20;6.72;;;25.50;99.90;;;;;;5055455;28;20045;-93
2022/08/14 08:25:16;;;;;;;8.50;6.65;;;25.60;99.90;;;;;;5072689;28;20087;-93
2022/08/14 08:27:42;;;;;;;8.88;6.72;;;25.70;99.50;;;;;;5056120;28;20032;-92
2022/08/14 08:30:09;;;;;;;9.82;7.00;;;25.80;99.30;;;;;;5070941;28;20055;-93
2022/08/14 08:32:42;;;;;;;9.45;6.95;;;25.90;98.80;;;;;;5041254;28;20051;-93
2022/08/14 08:35:22;;;;;;;13.68;7.05;;;26.00;98.30;;;;;;5055124;28;20444;-94
2022/08/14 08:37:50;;;;;;;9.40;6.43;;;26.10;98.60;;;;;;5036230;28;20051;-92
2022/08/14 08:40:40;;;;;;;9.35;6.32;;;26.10;98.30;;;;;;5052697;28;20052;-93
2022/08/14 08:43:07;;;;;;;10.05;7.22;;;26.20;97.60;;;;;;5045166;28;20828;-93
2022/08/14 08:45:35;;;;;;;9.65;6.82;;;26.30;96.60;;;;;;5072039;28;20165;-93
2022/08/14 08:48:03;;;;;;;9.93;6.50;;;26.30;96.00;;;;;;5073647;28;20489;-93
2022/08/14 08:50:34;;;;;;;10.07;6.70;;;26.40;95.10;;;;;;5066463;28;20179;-93
2022/08/14 08:53:03;;;;;;;9.88;6.63;;;26.50;94.90;;;;;;5062784;28;20067;-93
2022/08/14 08:55:38;;;;;;;10.02;6.10;;;26.50;94.40;;;;;;5049369;28;20036;-93
2022/08/14 08:58:10;;;;;;;11.13;6.68;;;26.60;94.40;;;;;;5049010;28;20041;-92
2022/08/14 09:00:37;;;;;;;8.98;6.07;;;26.60;93.70;;;;;;5040373;28;20053;-93
2022/08/14 09:03:16;;;;;;;10.05;6.60;;;26.70;93.90;;;;;;5036724;28;20041;-94
2022/08/14 09:05:56;;;;;;;9.10;6.53;;;26.80;93.60;;;;;;5043076;28;20040;-94
2022/08/14 09:08:31;;;;;;;12.05;6.68;;;26.80;91.60;;;;;;5061462;28;20166;-93
2022/08/14 09:10:58;;;;;;;10.50;6.90;;;26.80;91.80;;;;;;5071159;28;20040;-93
2022/08/14 09:13:25;;;;;;;12.63;6.80;;;26.90;91.90;;;;;;5055379;28;20040;-93
2022/08/14 09:15:52;;;;;;;10.38;7.38;;;27.00;91.80;;;;;;5071597;28;20036;-94
2022/08/14 09:18:20;;;;;;;10.88;7.80;;;27.00;91.00;;;;;;5071648;28;20043;-93
2022/08/14 09:20:49;;;;;;;9.30;6.70;;;27.10;91.30;;;;;;5055797;28;20102;-93
2022/08/14 09:23:15;;;;;;;10.38;6.60;;;27.10;91.10;;;;;;5034609;28;20132;-92
2022/08/14 09:25:44;;;;;;;9.23;6.68;;;27.20;91.50;;;;;;5034776;28;20072;-93
2022/08/14 09:28:11;;;;;;;9.75;6.78;;;27.30;91.90;;;;;;5035357;28;20033;-93
2022/08/14 09:30:40;;;;;;;9.98;6.90;;;27.40;91.30;;;;;;5050956;28;20033;-92
2022/08/14 09:33:30;;;;;;;10.32;6.97;;;27.40;89.00;;;;;;5038274;28;20048;-93
2022/08/14 09:36:14;;;;;;;8.43;6.32;;;27.40;88.50;;;;;;5070892;28;20047;-92
2022/08/14 09:39:16;;;;;;;9.63;6.72;;;27.50;90.30;;;;;;5046048;28;20052;-92
2022/08/14 09:42:07;;;;;;;9.38;6.68;;;27.60;88.40;;;;;;5032386;28;20537;-93
2022/08/14 09:44:54;;;;;;;9.88;6.65;;;27.60;86.50;;;;;;5048899;28;20036;-91
2022/08/14 09:47:20;;;;;;;9.45;6.45;;;27.70;86.40;;;;;;5054592;28;20041;-92
2022/08/14 09:49:46;;;;;;;9.20;7.00;;;27.70;85.90;;;;;;5072267;28;20040;-92
2022/08/14 09:52:14;;;;;;;10.10;6.72;;;27.80;83.00;;;;;;5071078;28;20036;-92
2022/08/14 09:54:42;;;;;;;9.43;6.70;;;27.80;81.30;;;;;;5072117;28;20033;-93
2022/08/14 09:57:12;;;;;;;9.25;6.50;;;27.90;81.70;;;;;;5054349;28;20497;-93
2022/08/14 09:59:45;;;;;;;10.40;6.85;;;27.90;81.20;;;;;;5070535;28;20045;-93
2022/08/14 10:02:26;;;;;;;9.00;6.68;;;28.00;80.30;;;;;;5070651;28;20040;-92
2022/08/14 10:05:00;;;;;;;9.98;6.75;;;28.10;79.70;;;;;;5070554;28;20489;-92
2022/08/14 10:07:33;;;;;;;9.52;7.38;;;28.10;80.20;;;;;;5054127;28;20043;-92
2022/08/14 10:09:59;;;;;;;8.90;7.22;;;28.20;77.50;;;;;;5054388;28;20521;-92
2022/08/14 10:12:43;;;;;;;8.40;5.57;;;28.30;78.00;;;;;;5070422;28;20060;-92
2022/08/14 10:15:20;;;;;;;8.38;5.07;;;28.40;75.60;;;;;;5070971;28;20047;-93
2022/08/14 10:17:48;;;;;;;8.13;5.85;;;28.40;73.30;;;;;;5053780;28;20036;-92
2022/08/14 10:20:16;;;;;;;9.13;6.00;;;28.40;71.50;;;;;;5053358;28;20169;-91
2022/08/14 10:22:42;;;;;;;8.30;6.63;;;28.40;73.50;;;;;;5066633;28;20051;-92
2022/08/14 10:25:13;;;;;;;7.80;5.57;;;28.60;73.00;;;;;;5049779;28;20087;-93
2022/08/14 10:27:39;;;;;;;9.02;5.97;;;28.60;73.60;;;;;;5034462;28;20086;-92
2022/08/14 10:30:14;;;;;;;7.90;5.45;;;28.70;71.80;;;;;;5034090;28;20094;-92
2022/08/14 10:32:45;;;;;;;9.40;6.80;;;28.80;71.00;;;;;;5032881;28;20064;-92
2022/08/14 10:35:12;;;;;;;9.13;5.80;;;28.80;69.50;;;;;;5050182;28;20045;-93
2022/08/14 10:37:39;;;;;;;8.48;5.78;;;28.90;69.80;;;;;;5033864;28;20049;-93
2022/08/14 10:40:06;;;;;;;8.25;5.70;;;28.90;69.60;;;;;;5050862;28;20040;-92
2022/08/14 10:42:37;;;;;;;8.15;5.15;;;29.00;69.80;;;;;;5033340;28;20037;-93
2022/08/14 10:45:17;;;;;;;11.10;5.90;;;29.10;68.20;;;;;;5033891;28;20040;-92
2022/08/14 10:47:42;;;;;;;8.38;5.43;;;29.20;68.90;;;;;;5033887;28;20044;-93
2022/08/14 10:50:08;;;;;;;8.10;5.50;;;29.20;67.30;;;;;;5051776;28;20037;-92
2022/08/14 10:52:35;;;;;;;8.32;5.82;;;29.30;67.00;;;;;;5070006;28;20028;-92
2022/08/14 10:55:21;;;;;;;9.23;6.10;;;29.40;66.30;;;;;;5053384;28;20048;-92
2022/08/14 10:57:52;;;;;;;9.25;5.57;;;29.40;66.60;;;;;;5070292;28;20090;-92
2022/08/14 11:00:25;;;;;;;8.30;5.38;;;29.60;66.30;;;;;;5070586;28;20040;-93
2022/08/14 11:03:16;;;;;;;8.70;5.63;;;29.60;65.90;;;;;;5049412;28;20040;-93
2022/08/14 11:05:48;;;;;;;10.10;6.32;;;29.70;64.40;;;;;;5065114;28;20043;-92
2022/08/14 11:08:16;;;;;;;8.20;5.35;;;29.70;64.70;;;;;;5052300;28;20494;-91
2022/08/14 11:10:45;;;;;;;9.75;5.68;;;29.80;64.60;;;;;;5070268;28;20044;-92
2022/08/14 11:13:17;;;;;;;8.18;5.15;;;29.90;63.90;;;;;;5051856;28;20086;-92
2022/08/14 11:15:45;;;;;;;10.45;5.85;;;30.00;63.40;;;;;;5063656;28;20029;-92
2022/08/14 11:18:11;;;;;;;9.88;5.15;;;30.00;62.70;;;;;;5064566;28;20119;-92
2022/08/14 11:20:38;;;;;;;8.73;5.28;;;30.10;62.20;;;;;;5048685;28;20041;-92
2022/08/14 11:23:07;;;;;;;10.20;5.47;;;30.20;62.80;;;;;;5052222;28;20037;-92
2022/08/14 11:25:36;;;;;;;7.93;5.53;;;30.30;61.70;;;;;;5070110;28;20058;-92
2022/08/14 11:28:04;;;;;;;8.65;5.75;;;30.30;61.90;;;;;;5052854;28;20040;-92
2022/08/14 11:30:29;;;;;;;8.35;5.60;;;30.40;61.80;;;;;;5064208;28;20045;-92
2022/08/14 11:32:56;;;;;;;8.20;5.80;;;30.50;61.50;;;;;;5062464;28;20044;-92
2022/08/14 11:35:25;;;;;;;9.45;5.90;;;30.50;61.10;;;;;;5065130;28;20525;-92
2022/08/14 11:37:55;;;;;;;7.68;5.38;;;30.50;61.00;;;;;;5047306;28;20116;-92
2022/08/14 11:40:22;;;;;;;8.85;6.03;;;30.60;61.70;;;;;;5036696;28;20048;-91
2022/08/14 11:42:49;;;;;;;8.73;6.18;;;30.80;61.20;;;;;;5069809;28;20094;-92
2022/08/14 11:45:15;;;;;;;8.95;6.82;;;30.80;60.00;;;;;;5059501;28;20120;-91
2022/08/14 11:47:41;;;;;;;7.47;5.28;;;31.00;59.30;;;;;;5061016;28;20036;-92
2022/08/14 11:50:33;;;;;;;8.68;5.22;;;31.10;59.60;;;;;;5050024;28;20101;-92
2022/08/14 11:53:01;;;;;;;8.38;5.00;;;31.00;57.70;;;;;;5067644;28;20056;-91
2022/08/14 11:55:32;;;;;;;8.10;4.90;;;30.90;58.30;;;;;;5073550;28;20059;-92
2022/08/14 11:58:02;;;;;;;7.22;4.53;;;31.00;57.50;;;;;;5073724;28;20099;-92
2022/08/14 12:00:29;;;;;;;7.30;4.97;;;31.10;58.10;;;;;;5056963;28;20401;-92
2022/08/14 12:02:57;;;;;;;9.20;4.57;;;31.20;57.30;;;;;;5073180;28;20094;-92
2022/08/14 12:05:41;;;;;;;8.60;4.50;;;31.40;56.90;;;;;;5056926;28;20094;-92
2022/08/14 12:08:09;;;;;;;8.38;4.70;;;31.40;56.80;;;;;;5056811;28;20040;-92
2022/08/14 12:10:38;;;;;;;8.85;5.00;;;31.40;56.10;;;;;;5057156;28;20044;-93
2022/08/14 12:13:15;;;;;;;7.30;4.60;;;31.60;55.70;;;;;;5056207;28;20043;-93
2022/08/14 12:15:43;;;;;;;7.97;4.35;;;31.70;55.10;;;;;;5056570;28;20047;-93
2022/08/14 12:18:10;;;;;;;12.52;5.20;;;31.80;56.30;;;;;;5056504;28;20043;-93
2022/08/14 12:20:41;;;;;;;7.95;4.68;;;32.00;56.10;;;;;;5056376;28;20135;-93
2022/08/14 12:23:20;;;;;;;8.02;4.03;;;32.20;54.20;;;;;;5056273;28;20044;-93
2022/08/14 12:25:45;;;;;;;8.20;4.28;;;32.40;54.10;;;;;;5056509;28;20226;-93
2022/08/14 12:28:12;;;;;;;7.90;4.57;;;32.50;53.20;;;;;;5073307;28;20055;-94
2022/08/14 12:30:41;;;;;;;8.10;5.13;;;32.60;53.80;;;;;;5073980;28;20044;-92
2022/08/14 12:33:24;;;;;;;8.80;4.90;;;32.80;53.00;;;;;;5055974;28;20048;-92
2022/08/14 12:35:51;;;;;;;8.32;4.85;;;32.90;53.60;;;;;;5073207;28;20129;-93
2022/08/14 12:38:17;;;;;;;7.20;4.22;;;32.90;51.70;;;;;;5056197;28;20040;-93
2022/08/14 12:40:52;;;;;;;8.57;4.32;;;32.90;50.90;;;;;;5072784;28;20089;-92
2022/08/14 12:43:19;;;;;;;8.50;4.72;;;33.10;51.90;;;;;;5072334;28;20043;-93
2022/08/14 12:45:55;;;;;;;8.38;4.70;;;33.10;51.30;;;;;;5072277;28;20630;-92
2022/08/14 12:48:22;;;;;;;8.13;4.70;;;33.10;50.70;;;;;;5072324;28;20511;-92
2022/08/14 12:50:52;;;;;;;7.30;4.35;;;33.30;51.40;;;;;;5055694;28;20131;-93
2022/08/14 12:53:19;;;;;;;10.70;4.80;;;33.40;51.20;;;;;;5072972;28;20414;-93
2022/08/14 12:55:56;;;;;;;7.53;4.53;;;33.60;51.50;;;;;;5072446;28;20058;-92
2022/08/14 12:58:27;;;;;;;8.70;4.30;;;33.70;50.60;;;;;;5070988;28;20051;-93
2022/08/14 13:00:55;;;;;;;9.40;4.70;;;33.80;50.10;;;;;;5072369;28;20040;-92
2022/08/14 13:03:27;;;;;;;8.15;4.47;;;34.00;49.60;;;;;;5073419;28;20043;-94
2022/08/14 13:05:54;;;;;;;7.53;4.65;;;34.20;49.10;;;;;;5072331;28;20045;-93